Time;durP1;ratioP1;P1;durP2;ratioP2;P2;SDS_P1;SDS_P2;PMS_P1;PMS_P2;Temp;Humidity;BMP_temperature;BMP_pressure;BME280_temperature;BME280_humidity;BME280_pressure;Samples;Min_cycle;Max_cycle;Signal;HPM_P1;HPM_P2
2023/01/10 00:01:21;;;;;;;5.00;1.70;;;5.50;99.90;;;;;;5053798;28;20202;-46
2023/01/10 00:03:47;;;;;;;5.87;2.10;;;5.40;99.90;;;;;;5053539;28;20179;-44
2023/01/10 00:06:13;;;;;;;3.50;1.70;;;5.50;99.90;;;;;;5053752;28;20174;-46
2023/01/10 00:08:39;;;;;;;4.90;1.90;;;5.50;99.90;;;;;;5053633;28;20182;-44
2023/01/10 00:13:22;;;;;;;11.33;2.10;;;5.50;99.90;;;;;;5035411;28;20244;-44
2023/01/10 00:13:54;;;;;;;6.23;2.27;;;5.50;99.90;;;;;;5053237;28;20221;-45
2023/01/10 00:16:20;;;;;;;3.23;1.53;;;5.50;99.90;;;;;;5053964;28;20165;-43
2023/01/10 00:18:45;;;;;;;7.00;2.23;;;5.60;99.90;;;;;;5053295;28;20572;-46
2023/01/10 00:21:13;;;;;;;4.43;1.93;;;5.60;99.90;;;;;;5053669;28;20186;-44
2023/01/10 00:23:38;;;;;;;8.17;2.37;;;5.60;99.90;;;;;;5053607;28;20179;-48
2023/01/10 00:26:04;;;;;;;10.63;2.40;;;5.60;99.90;;;;;;5053536;28;20294;-50
2023/01/10 00:28:33;;;;;;;8.87;2.90;;;5.60;99.90;;;;;;5053413;28;20180;-49
2023/01/10 00:31:05;;;;;;;12.00;2.30;;;5.60;99.90;;;;;;5053002;28;20203;-50
2023/01/10 00:33:32;;;;;;;5.57;2.17;;;5.60;99.90;;;;;;5053414;28;20164;-49
2023/01/10 00:35:59;;;;;;;6.57;2.20;;;5.60;99.90;;;;;;5053085;28;20680;-50
2023/01/10 00:38:25;;;;;;;9.33;2.17;;;5.60;99.90;;;;;;5035282;28;20178;-49
2023/01/10 00:40:50;;;;;;;4.07;1.60;;;5.60;99.90;;;;;;5019172;28;20182;-52
2023/01/10 00:46:01;;;;;;;5.30;2.30;;;5.60;99.90;;;;;;5053095;28;20697;-51
2023/01/10 00:48:27;;;;;;;8.63;2.23;;;5.60;99.90;;;;;;5053063;28;20183;-50
2023/01/10 00:50:53;;;;;;;4.50;1.83;;;5.60;99.90;;;;;;5053242;28;20680;-50
2023/01/10 00:53:19;;;;;;;6.97;2.50;;;5.60;99.90;;;;;;5052931;28;20213;-50
2023/01/10 00:55:45;;;;;;;6.27;1.93;;;5.60;99.90;;;;;;5052927;28;20189;-50
2023/01/10 00:58:12;;;;;;;11.50;2.53;;;5.60;99.90;;;;;;5054999;28;20643;-50
2023/01/10 01:00:38;;;;;;;8.53;2.07;;;5.50;99.90;;;;;;5057178;28;20178;-49
2023/01/10 01:03:05;;;;;;;7.27;1.90;;;5.50;99.90;;;;;;5057077;28;20556;-49
2023/01/10 01:05:30;;;;;;;10.97;2.80;;;5.50;99.90;;;;;;5057379;28;20261;-50
2023/01/10 01:07:56;;;;;;;9.47;2.70;;;5.40;99.90;;;;;;5056907;28;20717;-51
2023/01/10 01:10:27;;;;;;;11.40;2.60;;;5.40;99.90;;;;;;5057259;28;20182;-50
2023/01/10 01:13:05;;;;;;;12.10;2.77;;;5.40;99.90;;;;;;5056972;28;20210;-50
2023/01/10 01:15:34;;;;;;;14.03;2.90;;;5.30;99.90;;;;;;5057308;28;20559;-51
2023/01/10 01:18:00;;;;;;;7.67;2.23;;;5.30;99.90;;;;;;5056676;28;20537;-51
2023/01/10 01:20:26;;;;;;;9.43;3.00;;;5.20;99.90;;;;;;5038725;28;20174;-50
2023/01/10 01:22:51;;;;;;;8.23;2.43;;;5.20;99.90;;;;;;5056427;28;20549;-51
2023/01/10 01:25:17;;;;;;;8.10;2.60;;;5.10;99.90;;;;;;5056517;28;20178;-50
2023/01/10 01:27:43;;;;;;;10.93;2.60;;;5.10;99.90;;;;;;5056462;28;20179;-50
2023/01/10 01:30:10;;;;;;;6.50;2.50;;;5.00;99.90;;;;;;5056593;28;20240;-51
2023/01/10 01:32:36;;;;;;;11.17;3.03;;;5.00;99.90;;;;;;5056512;28;20216;-50
2023/01/10 01:35:01;;;;;;;9.70;2.43;;;4.90;99.90;;;;;;5056611;28;20184;-49
2023/01/10 01:37:27;;;;;;;11.20;2.17;;;5.00;99.90;;;;;;5056338;28;20543;-51
2023/01/10 01:39:52;;;;;;;7.63;2.20;;;4.90;99.90;;;;;;5056331;28;20669;-51
2023/01/10 01:42:24;;;;;;;14.13;3.17;;;4.90;99.90;;;;;;5056270;28;20203;-51
2023/01/10 01:45:22;;;;;;;6.97;2.47;;;4.90;99.90;;;;;;5058775;28;20177;-50
2023/01/10 01:47:53;;;;;;;9.67;2.53;;;4.90;99.90;;;;;;5016610;28;20217;-50
2023/01/10 01:50:25;;;;;;;10.87;2.93;;;4.90;99.90;;;;;;5056617;28;20167;-50
2023/01/10 01:52:53;;;;;;;9.97;2.77;;;4.90;99.90;;;;;;5038138;28;20698;-50
2023/01/10 01:55:20;;;;;;;10.93;2.43;;;4.90;99.90;;;;;;5055898;28;20210;-50
2023/01/10 01:57:47;;;;;;;5.47;2.37;;;4.90;99.90;;;;;;5055917;28;20186;-50
2023/01/10 02:00:13;;;;;;;12.00;3.20;;;4.90;99.90;;;;;;5055834;28;20224;-49
2023/01/10 02:02:46;;;;;;;7.07;2.30;;;4.90;99.90;;;;;;5056011;28;20216;-50
2023/01/10 02:05:15;;;;;;;7.13;2.53;;;4.90;99.90;;;;;;5055732;28;20177;-50
2023/01/10 02:07:49;;;;;;;11.30;2.47;;;4.90;99.90;;;;;;5055426;28;20653;-50
2023/01/10 02:10:27;;;;;;;17.83;2.90;;;4.90;99.90;;;;;;5055698;28;20177;-49
2023/01/10 02:12:54;;;;;;;8.43;2.30;;;4.90;99.90;;;;;;5055779;28;20224;-49
2023/01/10 02:15:21;;;;;;;6.70;2.07;;;4.90;99.90;;;;;;5037765;28;20185;-50
2023/01/10 02:17:48;;;;;;;7.37;2.30;;;4.90;99.90;;;;;;5055706;28;20542;-49
2023/01/10 02:20:16;;;;;;;13.10;2.33;;;4.90;99.90;;;;;;5055413;28;20181;-49
2023/01/10 02:23:19;;;;;;;14.03;2.73;;;4.90;99.90;;;;;;5037517;28;20205;-50
2023/01/10 02:26:04;;;;;;;12.90;2.73;;;4.80;99.90;;;;;;5037470;28;20185;-50
2023/01/10 02:28:51;;;;;;;9.53;2.57;;;4.90;99.90;;;;;;5055914;28;20166;-50
2023/01/10 02:31:47;;;;;;;7.27;1.77;;;4.90;99.90;;;;;;5055245;28;20214;-50
2023/01/10 02:34:19;;;;;;;10.47;2.20;;;4.90;99.90;;;;;;5055435;28;20177;-49
2023/01/10 02:37:13;;;;;;;7.57;2.23;;;4.90;99.90;;;;;;5055132;28;20165;-50
2023/01/10 02:39:58;;;;;;;10.80;2.33;;;4.90;99.90;;;;;;5055394;28;20586;-51
2023/01/10 02:42:33;;;;;;;14.67;2.40;;;4.90;99.90;;;;;;5055014;28;20673;-50
2023/01/10 02:45:23;;;;;;;9.90;2.17;;;4.90;99.90;;;;;;5055350;28;20713;-51
2023/01/10 02:47:48;;;;;;;6.10;1.87;;;4.90;99.90;;;;;;5055278;28;20246;-51
2023/01/10 02:50:23;;;;;;;12.17;2.30;;;4.90;99.90;;;;;;5037016;28;20303;-51
2023/01/10 02:52:49;;;;;;;13.50;2.43;;;4.90;99.90;;;;;;5054800;28;20212;-49
2023/01/10 02:55:14;;;;;;;12.13;2.80;;;4.90;99.90;;;;;;5055058;28;20564;-50
2023/01/10 02:58:22;;;;;;;8.73;2.13;;;4.90;99.90;;;;;;5055002;28;20198;-49
2023/01/10 03:01:02;;;;;;;6.47;2.00;;;4.90;99.90;;;;;;5054771;28;20216;-49
2023/01/10 03:03:39;;;;;;;9.23;1.93;;;5.00;99.90;;;;;;5055169;28;20166;-50
2023/01/10 03:06:20;;;;;;;9.23;2.40;;;5.00;99.90;;;;;;5054574;28;20161;-50
2023/01/10 03:08:58;;;;;;;10.97;2.23;;;5.00;99.90;;;;;;5036797;28;20173;-50
2023/01/10 03:11:41;;;;;;;11.90;1.97;;;5.00;99.90;;;;;;5054381;28;20209;-49
2023/01/10 03:14:16;;;;;;;9.97;2.07;;;5.00;99.90;;;;;;5054754;28;20163;-50
2023/01/10 03:16:48;;;;;;;12.53;2.60;;;5.00;99.90;;;;;;5054554;28;20187;-50
2023/01/10 03:19:19;;;;;;;7.50;2.07;;;4.90;99.90;;;;;;5054559;28;20547;-51
2023/01/10 03:21:48;;;;;;;9.40;1.67;;;4.90;99.90;;;;;;5053742;28;20342;-51
2023/01/10 03:24:17;;;;;;;15.87;2.43;;;4.80;99.90;;;;;;5054248;28;20246;-50
2023/01/10 03:27:04;;;;;;;11.60;2.57;;;4.80;99.90;;;;;;5054452;28;20569;-51
2023/01/10 03:29:48;;;;;;;14.10;2.97;;;4.80;99.90;;;;;;5054359;28;20196;-51
2023/01/10 03:32:18;;;;;;;10.23;2.77;;;4.70;99.90;;;;;;5036140;28;20579;-51
2023/01/10 03:34:44;;;;;;;13.93;2.57;;;4.80;99.90;;;;;;5054348;28;20165;-51
2023/01/10 03:37:16;;;;;;;8.43;2.10;;;4.80;99.90;;;;;;5053960;28;20180;-50
2023/01/10 03:40:13;;;;;;;10.30;2.43;;;4.80;99.90;;;;;;5054340;28;20169;-51
2023/01/10 03:46:04;;;;;;;13.43;2.07;;;4.90;99.90;;;;;;5054778;28;20178;-52
2023/01/10 03:48:35;;;;;;;9.27;2.53;;;4.90;99.90;;;;;;5029275;28;20279;-51
2023/01/10 03:51:04;;;;;;;14.33;2.77;;;4.90;99.90;;;;;;5054263;28;20214;-45
2023/01/10 03:53:31;;;;;;;12.60;2.47;;;4.90;99.90;;;;;;5054016;28;20256;-44
2023/01/10 03:55:57;;;;;;;8.73;2.50;;;4.90;99.90;;;;;;5054042;28;20241;-43
2023/01/10 03:58:22;;;;;;;20.80;2.20;;;5.00;99.90;;;;;;5053794;28;20173;-44
2023/01/10 04:00:48;;;;;;;10.43;2.57;;;5.00;99.90;;;;;;5054007;28;20179;-45
2023/01/10 04:03:15;;;;;;;14.50;2.20;;;5.00;99.90;;;;;;5053592;28;20701;-45
2023/01/10 04:05:41;;;;;;;12.33;2.30;;;5.00;99.90;;;;;;5053656;28;20181;-45
2023/01/10 04:08:07;;;;;;;7.23;2.03;;;5.00;99.90;;;;;;5035717;28;20174;-47
2023/01/10 04:10:33;;;;;;;11.67;2.83;;;5.00;99.90;;;;;;5053847;28;20173;-44
2023/01/10 04:13:00;;;;;;;13.83;2.60;;;5.00;99.90;;;;;;5053356;28;20331;-45
2023/01/10 04:15:26;;;;;;;17.30;3.50;;;5.00;99.90;;;;;;5053516;28;20580;-44
2023/01/10 04:17:51;;;;;;;14.97;2.20;;;5.00;99.90;;;;;;5053436;28;20227;-45
2023/01/10 04:20:17;;;;;;;11.03;2.63;;;5.00;99.90;;;;;;5053347;28;20223;-43
2023/01/10 04:22:44;;;;;;;12.93;2.87;;;5.00;99.90;;;;;;5053434;28;20200;-44
2023/01/10 04:25:10;;;;;;;12.97;2.63;;;5.00;99.90;;;;;;5035612;28;20176;-44
2023/01/10 04:27:35;;;;;;;11.23;2.47;;;4.90;99.90;;;;;;5053310;28;20233;-44
2023/01/10 04:30:01;;;;;;;12.03;2.33;;;4.90;99.90;;;;;;5053536;28;20208;-46
2023/01/10 04:32:26;;;;;;;16.33;2.83;;;4.90;99.90;;;;;;5052901;28;20213;-43
2023/01/10 04:34:52;;;;;;;11.03;2.50;;;4.80;99.90;;;;;;5053204;28;20535;-44
2023/01/10 04:37:18;;;;;;;8.83;2.07;;;4.80;99.90;;;;;;5053410;28;20619;-45
2023/01/10 04:39:44;;;;;;;15.53;2.53;;;4.80;99.90;;;;;;5053490;28;20260;-45
2023/01/10 04:42:10;;;;;;;9.03;3.00;;;4.80;99.90;;;;;;5053685;28;20656;-44
2023/01/10 04:44:35;;;;;;;12.70;2.47;;;4.80;99.90;;;;;;5053993;28;20552;-45
2023/01/10 04:47:01;;;;;;;12.07;2.73;;;4.80;99.90;;;;;;5056717;28;20188;-46
2023/01/10 04:49:26;;;;;;;10.43;2.60;;;4.70;99.90;;;;;;5056328;28;20177;-44
2023/01/10 04:51:52;;;;;;;10.27;2.47;;;4.80;99.90;;;;;;5053398;28;20751;-45
2023/01/10 04:54:21;;;;;;;13.70;2.80;;;4.70;99.90;;;;;;5053272;28;20173;-43
2023/01/10 04:56:46;;;;;;;16.57;3.47;;;4.70;99.90;;;;;;5052993;28;20199;-44
2023/01/10 04:59:12;;;;;;;11.10;2.30;;;4.70;99.90;;;;;;5053013;28;20169;-44
2023/01/10 05:01:38;;;;;;;12.83;2.80;;;4.70;99.90;;;;;;5052996;28;20564;-44
2023/01/10 05:04:04;;;;;;;16.93;2.90;;;4.60;99.90;;;;;;5035095;28;20185;-45
2023/01/10 05:06:30;;;;;;;16.23;2.87;;;4.60;99.90;;;;;;5053123;28;20645;-45
2023/01/10 05:08:56;;;;;;;16.03;2.83;;;4.50;99.90;;;;;;5053116;28;20181;-43
2023/01/10 05:11:21;;;;;;;14.30;2.70;;;4.50;99.90;;;;;;5052913;28;20201;-45
2023/01/10 05:13:47;;;;;;;16.97;2.90;;;4.50;99.90;;;;;;5052848;28;20165;-46
2023/01/10 05:16:13;;;;;;;17.70;3.20;;;4.50;99.90;;;;;;5052918;28;20192;-45
2023/01/10 05:18:38;;;;;;;7.00;1.87;;;4.50;99.90;;;;;;5052919;28;20169;-44
2023/01/10 05:21:06;;;;;;;17.80;2.80;;;4.40;99.90;;;;;;5052765;28;20188;-44
2023/01/10 05:23:32;;;;;;;19.70;3.00;;;4.40;99.90;;;;;;5053208;28;20182;-46
2023/01/10 05:26:08;;;;;;;16.73;2.77;;;4.40;99.90;;;;;;5053151;28;20177;-45
2023/01/10 05:28:34;;;;;;;21.20;4.03;;;4.30;99.90;;;;;;5035759;28;20169;-45
2023/01/10 05:31:00;;;;;;;13.23;2.67;;;4.40;99.90;;;;;;5052935;28;20213;-45
2023/01/10 05:33:25;;;;;;;17.17;3.23;;;4.40;99.90;;;;;;5053062;28;20176;-45
2023/01/10 05:35:51;;;;;;;17.73;3.40;;;4.40;99.90;;;;;;5052986;28;20224;-45
2023/01/10 05:38:16;;;;;;;12.80;3.00;;;4.40;99.90;;;;;;5052758;28;20223;-46
2023/01/10 05:40:42;;;;;;;21.77;3.37;;;4.30;99.90;;;;;;5052854;28;20184;-46
2023/01/10 05:43:07;;;;;;;20.70;3.63;;;4.30;99.90;;;;;;5035395;28;20193;-44
2023/01/10 05:45:33;;;;;;;13.67;3.03;;;4.30;99.90;;;;;;5056712;28;20164;-44
2023/01/10 05:47:58;;;;;;;15.17;3.00;;;4.30;99.90;;;;;;5038757;28;20176;-51
2023/01/10 05:50:24;;;;;;;13.17;3.73;;;4.30;99.90;;;;;;5056740;28;20212;-51
2023/01/10 05:52:50;;;;;;;12.33;2.27;;;4.30;99.90;;;;;;5056681;28;20236;-44
2023/01/10 05:55:15;;;;;;;21.27;3.63;;;4.30;99.90;;;;;;5056117;28;20213;-46
2023/01/10 05:57:41;;;;;;;17.43;3.43;;;4.30;99.90;;;;;;5056998;28;20516;-42
2023/01/10 06:00:07;;;;;;;16.40;3.77;;;4.30;99.90;;;;;;5039008;28;20280;-46
2023/01/10 06:02:33;;;;;;;18.13;4.67;;;4.40;99.90;;;;;;5038705;28;20200;-44
2023/01/10 06:04:59;;;;;;;15.67;3.00;;;4.40;99.90;;;;;;5057328;28;20644;-44
2023/01/10 06:07:24;;;;;;;19.60;4.10;;;4.40;99.90;;;;;;5038302;28;20180;-45
2023/01/10 06:09:50;;;;;;;20.10;3.67;;;4.40;99.90;;;;;;5056173;28;20184;-44
2023/01/10 06:12:17;;;;;;;17.73;3.40;;;4.50;99.90;;;;;;5055912;28;20231;-44
2023/01/10 06:14:44;;;;;;;12.03;3.00;;;4.50;99.90;;;;;;5038146;28;20264;-44
2023/01/10 06:17:09;;;;;;;13.43;2.63;;;4.50;99.90;;;;;;5021643;28;20176;-43
2023/01/10 06:19:35;;;;;;;17.47;3.33;;;4.50;99.90;;;;;;5055579;28;20176;-44
2023/01/10 06:22:02;;;;;;;21.00;2.70;;;4.50;99.90;;;;;;5056010;28;20204;-44
2023/01/10 06:24:27;;;;;;;24.63;3.73;;;4.50;99.90;;;;;;5056874;28;20632;-44
2023/01/10 06:26:53;;;;;;;20.03;3.97;;;4.40;99.90;;;;;;5038306;28;20177;-43
2023/01/10 06:29:18;;;;;;;21.93;3.60;;;4.40;99.90;;;;;;5037778;28;20180;-43
2023/01/10 06:31:44;;;;;;;14.33;3.27;;;4.40;99.90;;;;;;5055534;28;20216;-44
2023/01/10 06:34:10;;;;;;;14.53;3.40;;;4.40;99.90;;;;;;5055373;28;20177;-45
2023/01/10 06:36:35;;;;;;;15.63;2.70;;;4.30;99.90;;;;;;5055240;28;20613;-46
2023/01/10 06:39:01;;;;;;;23.57;3.40;;;4.30;99.90;;;;;;5055393;28;20263;-46
2023/01/10 06:41:26;;;;;;;17.20;4.00;;;4.30;99.90;;;;;;5055311;28;20216;-42
2023/01/10 06:43:52;;;;;;;15.43;2.83;;;4.30;99.90;;;;;;5055575;28;20177;-44
2023/01/10 06:46:18;;;;;;;19.43;3.07;;;4.30;99.90;;;;;;5037293;28;20186;-44
2023/01/10 06:48:45;;;;;;;26.30;3.37;;;4.20;99.90;;;;;;5055307;28;20652;-45
2023/01/10 06:51:12;;;;;;;15.57;2.60;;;4.20;99.90;;;;;;5037001;28;20208;-45
2023/01/10 06:53:37;;;;;;;17.13;3.97;;;4.20;99.90;;;;;;5055603;28;20179;-44
2023/01/10 06:56:04;;;;;;;18.10;3.30;;;4.20;99.90;;;;;;5054768;28;20189;-43
2023/01/10 06:58:30;;;;;;;19.43;3.00;;;4.10;99.90;;;;;;5055031;28;20578;-46
2023/01/10 07:00:56;;;;;;;14.93;2.83;;;4.10;99.90;;;;;;5037047;28;20176;-46
2023/01/10 07:03:21;;;;;;;17.67;2.97;;;4.10;99.90;;;;;;5054727;28;20183;-43
2023/01/10 07:05:47;;;;;;;15.30;3.27;;;4.10;99.90;;;;;;5054951;28;20204;-44
2023/01/10 07:08:12;;;;;;;15.00;3.00;;;4.10;99.90;;;;;;5067947;22;20224;-48
2023/01/10 07:10:42;;;;;;;17.23;3.10;;;4.00;99.90;;;;;;5058337;28;20181;-49
2023/01/10 07:13:08;;;;;;;19.10;2.83;;;4.00;99.90;;;;;;5060206;28;20215;-51
2023/01/10 07:15:34;;;;;;;11.60;3.07;;;4.00;99.90;;;;;;5059686;28;20181;-48
2023/01/10 07:17:59;;;;;;;12.57;2.93;;;3.90;99.90;;;;;;5059241;28;20234;-50
2023/01/10 07:20:25;;;;;;;14.10;3.63;;;3.90;99.90;;;;;;5059621;28;20181;-48
2023/01/10 07:22:59;;;;;;;24.00;3.60;;;3.90;99.90;;;;;;5059602;28;20212;-47
2023/01/10 07:25:27;;;;;;;13.20;3.33;;;3.80;99.90;;;;;;5041574;28;20185;-49
2023/01/10 07:27:54;;;;;;;19.10;3.03;;;3.80;99.90;;;;;;5059743;28;20188;-49
2023/01/10 07:30:21;;;;;;;18.07;3.37;;;3.80;99.90;;;;;;5060213;28;20229;-49
2023/01/10 07:32:55;;;;;;;19.00;3.30;;;3.70;99.90;;;;;;5059042;28;20208;-49
2023/01/10 07:35:21;;;;;;;22.13;3.77;;;3.70;99.90;;;;;;5059226;28;20173;-49
2023/01/10 07:37:47;;;;;;;23.30;3.77;;;3.70;99.90;;;;;;5059197;28;20188;-49
2023/01/10 07:40:13;;;;;;;16.83;3.27;;;3.70;99.90;;;;;;5059219;28;20186;-50
2023/01/10 07:42:38;;;;;;;17.10;3.33;;;3.60;99.90;;;;;;5059110;28;20651;-49
2023/01/10 07:45:06;;;;;;;19.30;3.57;;;3.70;99.90;;;;;;5058971;28;20190;-48
2023/01/10 07:47:31;;;;;;;21.07;3.47;;;3.60;99.90;;;;;;5058810;28;20177;-48
2023/01/10 07:49:57;;;;;;;21.77;3.60;;;3.70;99.90;;;;;;5058618;28;20204;-49
2023/01/10 07:52:22;;;;;;;14.33;2.90;;;3.60;99.90;;;;;;5040840;28;20216;-49
2023/01/10 07:54:48;;;;;;;16.17;3.70;;;3.60;99.90;;;;;;5058731;28;20199;-49
2023/01/10 07:57:14;;;;;;;18.40;3.23;;;3.70;99.90;;;;;;5056737;28;20518;-49
2023/01/10 07:59:40;;;;;;;15.37;2.80;;;3.70;99.90;;;;;;5056840;28;20528;-49
2023/01/10 08:02:05;;;;;;;17.13;3.17;;;3.70;99.90;;;;;;5056924;28;20390;-50
2023/01/10 08:04:31;;;;;;;19.90;3.00;;;3.70;99.90;;;;;;5057242;28;20187;-49
2023/01/10 08:06:56;;;;;;;17.77;3.23;;;3.70;99.90;;;;;;5055883;28;20263;-50
2023/01/10 08:09:22;;;;;;;17.87;2.77;;;3.80;99.90;;;;;;5059412;28;20200;-49
2023/01/10 08:11:47;;;;;;;15.30;2.50;;;3.80;99.90;;;;;;5060031;28;20208;-50
2023/01/10 08:14:13;;;;;;;21.07;3.27;;;3.80;99.90;;;;;;5059792;28;20169;-51
2023/01/10 08:16:38;;;;;;;19.27;3.50;;;3.80;99.90;;;;;;5059579;28;20179;-49
2023/01/10 08:19:04;;;;;;;17.93;3.53;;;3.80;99.90;;;;;;5060330;28;20230;-48
2023/01/10 08:21:29;;;;;;;17.67;3.43;;;3.80;99.90;;;;;;5059894;28;20196;-48
2023/01/10 08:23:55;;;;;;;17.40;2.97;;;3.80;99.90;;;;;;5059923;28;20187;-50
2023/01/10 08:26:20;;;;;;;17.87;3.20;;;3.80;99.90;;;;;;5060911;28;20196;-47
2023/01/10 08:28:46;;;;;;;22.73;3.00;;;3.90;99.90;;;;;;5059545;28;20216;-50
2023/01/10 08:31:12;;;;;;;20.63;3.27;;;3.90;99.90;;;;;;5059021;28;20204;-49
2023/01/10 08:33:38;;;;;;;14.20;2.83;;;3.90;99.90;;;;;;5059521;28;20208;-50
2023/01/10 08:36:04;;;;;;;12.33;2.70;;;4.00;99.90;;;;;;5059313;28;20314;-51
2023/01/10 08:38:30;;;;;;;15.63;3.23;;;4.00;99.90;;;;;;5058615;28;20242;-48
2023/01/10 08:40:59;;;;;;;18.57;3.53;;;4.00;99.90;;;;;;5059007;28;20192;-48
2023/01/10 08:43:25;;;;;;;23.00;2.83;;;4.10;99.90;;;;;;5059088;28;20187;-48
2023/01/10 08:45:50;;;;;;;12.97;2.63;;;4.10;99.90;;;;;;5059422;28;20188;-48
2023/01/10 08:48:16;;;;;;;25.33;3.80;;;4.20;99.90;;;;;;5059806;28;20183;-49
2023/01/10 08:50:42;;;;;;;17.93;2.70;;;4.20;99.90;;;;;;5058794;28;20181;-48
2023/01/10 08:53:08;;;;;;;19.17;2.70;;;4.30;99.90;;;;;;5058381;28;20279;-49
2023/01/10 08:55:34;;;;;;;20.60;3.57;;;4.30;99.90;;;;;;5057883;28;20188;-50
2023/01/10 08:58:00;;;;;;;14.60;2.63;;;4.30;99.90;;;;;;5040892;28;20210;-48
2023/01/10 09:00:27;;;;;;;13.50;2.77;;;4.40;99.90;;;;;;5040760;28;20172;-50
2023/01/10 09:02:52;;;;;;;12.00;3.00;;;4.40;99.90;;;;;;5059194;28;20267;-48
2023/01/10 09:05:18;;;;;;;12.87;2.70;;;4.40;99.90;;;;;;5058527;28;20713;-49
2023/01/10 09:07:45;;;;;;;21.13;2.80;;;4.50;99.90;;;;;;5058248;28;20176;-49
2023/01/10 09:10:11;;;;;;;14.73;2.37;;;4.60;99.90;;;;;;5057532;28;20237;-50
2023/01/10 09:12:55;;;;;;;14.97;2.33;;;4.60;99.90;;;;;;5057746;28;20215;-49
2023/01/10 09:15:27;;;;;;;17.60;3.23;;;4.70;99.90;;;;;;5058125;28;20171;-48
2023/01/10 09:17:54;;;;;;;12.37;2.47;;;4.80;99.90;;;;;;5058411;28;20561;-49
2023/01/10 09:20:20;;;;;;;17.63;3.73;;;5.20;99.90;;;;;;5061245;28;20233;-50
2023/01/10 09:22:45;;;;;;;9.97;2.17;;;5.00;99.90;;;;;;5061551;28;20231;-50
2023/01/10 09:25:11;;;;;;;12.60;2.60;;;5.00;99.90;;;;;;5061690;28;20177;-50
2023/01/10 09:27:36;;;;;;;16.13;2.90;;;5.00;99.90;;;;;;5061278;28;20186;-48
2023/01/10 09:30:03;;;;;;;12.80;3.07;;;5.10;99.90;;;;;;5061033;28;20179;-50
2023/01/10 09:32:29;;;;;;;11.53;3.33;;;5.20;99.90;;;;;;5060232;28;20216;-50
2023/01/10 09:34:54;;;;;;;13.63;2.90;;;5.20;99.90;;;;;;5060484;28;20227;-49
2023/01/10 09:37:20;;;;;;;17.37;2.90;;;5.30;99.90;;;;;;5060391;28;20228;-50
2023/01/10 09:39:45;;;;;;;15.90;2.80;;;5.40;99.90;;;;;;5060597;28;20184;-49
2023/01/10 09:42:18;;;;;;;14.23;3.20;;;5.50;99.90;;;;;;5060001;28;20205;-48
2023/01/10 09:45:05;;;;;;;18.70;2.73;;;5.50;99.90;;;;;;5060343;28;20219;-48
2023/01/10 09:47:42;;;;;;;18.00;3.30;;;5.60;99.90;;;;;;5060458;28;20188;-49
2023/01/10 09:50:17;;;;;;;16.53;3.10;;;5.70;99.90;;;;;;5060060;28;20165;-50
2023/01/10 09:52:54;;;;;;;22.63;3.63;;;5.80;99.90;;;;;;5041749;28;20350;-50
2023/01/10 09:55:22;;;;;;;18.63;4.00;;;5.90;99.90;;;;;;5059408;28;20182;-51
2023/01/10 09:57:50;;;;;;;10.97;3.10;;;6.00;99.90;;;;;;5059295;28;20206;-51
2023/01/10 10:00:20;;;;;;;19.57;3.47;;;6.10;99.90;;;;;;5041293;28;20189;-50
2023/01/10 10:02:51;;;;;;;15.23;3.20;;;6.20;99.90;;;;;;5058568;28;20266;-51
2023/01/10 10:05:27;;;;;;;16.47;2.60;;;6.20;99.90;;;;;;5058626;28;20162;-50
2023/01/10 10:08:01;;;;;;;16.77;2.83;;;6.30;99.90;;;;;;5058298;28;20188;-51
2023/01/10 10:10:30;;;;;;;20.27;3.30;;;6.40;99.90;;;;;;5057987;28;20199;-51
2023/01/10 10:12:58;;;;;;;23.10;4.77;;;6.50;99.90;;;;;;5061607;28;20227;-50
2023/01/10 10:15:38;;;;;;;12.33;2.03;;;6.60;99.90;;;;;;5065780;28;20209;-49
2023/01/10 10:18:09;;;;;;;16.83;3.27;;;6.70;99.90;;;;;;5065837;28;20162;-48
2023/01/10 10:20:43;;;;;;;11.80;2.03;;;6.70;99.90;;;;;;5065690;28;20182;-49
2023/01/10 10:23:34;;;;;;;20.13;3.10;;;6.70;99.90;;;;;;5065475;28;20201;-48
2023/01/10 10:26:05;;;;;;;22.93;3.10;;;6.80;99.90;;;;;;5064950;28;20185;-50
2023/01/10 10:28:52;;;;;;;23.83;3.43;;;6.80;99.90;;;;;;5064439;28;20513;-49
2023/01/10 10:31:36;;;;;;;17.23;3.60;;;6.90;99.90;;;;;;5063662;28;20217;-50
2023/01/10 10:34:10;;;;;;;18.23;3.00;;;6.90;99.90;;;;;;5063513;28;20208;-48
2023/01/10 10:36:59;;;;;;;17.17;2.40;;;7.00;99.90;;;;;;5062883;28;20182;-49
2023/01/10 10:39:38;;;;;;;12.00;2.90;;;7.00;99.90;;;;;;5062140;28;20174;-48
2023/01/10 10:42:09;;;;;;;9.87;1.90;;;7.10;99.90;;;;;;5061815;28;20293;-49
2023/01/10 10:44:39;;;;;;;11.77;2.87;;;7.20;99.90;;;;;;5061023;28;20537;-49
2023/01/10 10:47:14;;;;;;;21.47;3.30;;;7.20;99.90;;;;;;5060031;28;20216;-49
2023/01/10 10:49:59;;;;;;;15.40;2.73;;;7.30;99.90;;;;;;5059738;28;20275;-49
2023/01/10 10:52:35;;;;;;;14.80;2.60;;;7.30;99.90;;;;;;5059224;28;20215;-50
2023/01/10 10:55:04;;;;;;;15.53;2.73;;;7.40;99.90;;;;;;5058410;28;20175;-50
2023/01/10 10:57:33;;;;;;;16.27;3.03;;;7.40;99.90;;;;;;5059021;28;20191;-50
2023/01/10 11:00:00;;;;;;;13.03;3.37;;;7.40;99.90;;;;;;5058220;28;20215;-49
2023/01/10 11:02:32;;;;;;;18.57;3.87;;;7.50;99.90;;;;;;5057909;28;20215;-48
2023/01/10 11:05:02;;;;;;;13.07;2.60;;;7.50;99.90;;;;;;5057245;28;20195;-50
2023/01/10 11:07:34;;;;;;;16.53;2.93;;;7.50;99.90;;;;;;5057206;28;20180;-50
2023/01/10 11:12:50;;;;;;;11.20;2.40;;;7.50;99.90;;;;;;5056417;28;20219;-50
2023/01/10 11:15:39;;;;;;;12.63;2.80;;;7.60;99.90;;;;;;5056491;28;20544;-50
2023/01/10 11:18:14;;;;;;;14.13;2.93;;;7.60;99.90;;;;;;5057364;28;20172;-50
2023/01/10 11:20:58;;;;;;;17.67;3.20;;;7.70;99.90;;;;;;5056835;28;20604;-51
2023/01/10 11:23:36;;;;;;;18.20;2.83;;;7.70;99.90;;;;;;5056451;28;20168;-50
2023/01/10 11:26:25;;;;;;;14.77;2.87;;;7.80;99.90;;;;;;5056284;28;20169;-50
2023/01/10 11:29:02;;;;;;;14.10;2.40;;;7.80;99.90;;;;;;5056469;28;20165;-50
2023/01/10 11:31:29;;;;;;;18.07;2.87;;;7.90;99.90;;;;;;5056779;28;20220;-50
2023/01/10 11:33:56;;;;;;;18.40;2.87;;;7.90;99.90;;;;;;5057247;28;20528;-51
2023/01/10 11:36:21;;;;;;;13.67;2.20;;;7.90;99.90;;;;;;5056368;28;20617;-49
2023/01/10 11:39:13;;;;;;;10.90;2.47;;;8.00;99.90;;;;;;5038554;28;20274;-48
2023/01/10 11:41:38;;;;;;;20.43;3.10;;;8.00;99.90;;;;;;5055776;28;20298;-51
2023/01/10 11:44:25;;;;;;;12.83;2.93;;;8.10;99.90;;;;;;5056039;28;20192;-51
2023/01/10 11:46:57;;;;;;;15.73;2.63;;;8.10;99.90;;;;;;5056092;28;20290;-52
2023/01/10 11:49:35;;;;;;;18.07;2.33;;;8.10;99.90;;;;;;5055786;28;20173;-49
2023/01/10 11:52:33;;;;;;;13.13;2.70;;;8.20;99.90;;;;;;5037842;28;20365;-49
2023/01/10 11:54:59;;;;;;;15.73;3.00;;;8.30;99.90;;;;;;5041175;28;20188;-50
2023/01/10 11:57:28;;;;;;;12.33;2.67;;;8.30;99.90;;;;;;5055458;28;20179;-50
2023/01/10 12:00:03;;;;;;;15.50;3.07;;;8.30;99.90;;;;;;5056132;28;20203;-48
2023/01/10 12:02:35;;;;;;;9.60;2.73;;;8.40;99.90;;;;;;5055556;28;20737;-50
2023/01/10 12:05:05;;;;;;;15.30;2.50;;;8.40;99.90;;;;;;5055722;28;20180;-50
2023/01/10 12:07:50;;;;;;;14.17;2.70;;;8.50;99.90;;;;;;5055141;28;20226;-50
2023/01/10 12:10:20;;;;;;;22.50;2.70;;;8.50;99.90;;;;;;5054707;28;20196;-51
2023/01/10 12:12:58;;;;;;;12.73;2.63;;;8.50;99.90;;;;;;5055184;28;20266;-51
2023/01/10 12:15:25;;;;;;;16.77;3.47;;;8.50;99.90;;;;;;5036815;28;20159;-52
2023/01/10 12:17:54;;;;;;;13.10;2.40;;;8.60;99.90;;;;;;5054784;28;20617;-51
2023/01/10 12:20:20;;;;;;;16.33;2.90;;;8.60;99.90;;;;;;5054658;28;20223;-49
2023/01/10 12:22:50;;;;;;;17.53;2.90;;;8.60;99.90;;;;;;5054070;28;20279;-51
2023/01/10 12:25:24;;;;;;;12.23;2.40;;;8.60;99.90;;;;;;5054284;28;20180;-52
2023/01/10 12:27:50;;;;;;;22.77;2.50;;;8.60;99.90;;;;;;5053998;28;20186;-50
2023/01/10 12:30:27;;;;;;;8.93;2.00;;;8.60;99.90;;;;;;5053859;28;20188;-50
2023/01/10 12:32:54;;;;;;;10.37;2.27;;;8.60;99.90;;;;;;5053658;28;20224;-52
2023/01/10 12:35:39;;;;;;;10.73;2.57;;;8.60;99.90;;;;;;5054203;28;20731;-45
2023/01/10 12:44:09;;;;;;;14.97;2.80;;;8.60;99.90;;;;;;5053411;28;20190;-44
2023/01/10 12:44:13;;;;;;;12.50;2.87;;;8.60;99.90;;;;;;5053166;28;20224;-46
2023/01/10 12:46:43;;;;;;;15.03;3.13;;;8.60;99.90;;;;;;5053416;28;20238;-46
2023/01/10 12:49:24;;;;;;;12.43;2.53;;;8.60;99.90;;;;;;5053363;28;20234;-44
2023/01/10 12:51:54;;;;;;;12.07;1.73;;;8.60;99.90;;;;;;5053241;28;20240;-45
2023/01/10 12:54:25;;;;;;;15.00;2.80;;;8.60;99.90;;;;;;5057146;28;20180;-46
2023/01/10 12:56:51;;;;;;;12.47;2.50;;;8.60;99.90;;;;;;5057198;28;20161;-47
2023/01/10 12:59:36;;;;;;;13.67;2.50;;;8.60;99.90;;;;;;5039361;28;20641;-47
2023/01/10 13:02:03;;;;;;;12.53;2.23;;;8.60;99.90;;;;;;5057293;28;20651;-43
2023/01/10 13:04:31;;;;;;;7.70;1.77;;;8.60;99.90;;;;;;5056933;28;20282;-45
2023/01/10 13:06:58;;;;;;;14.10;2.27;;;8.60;99.90;;;;;;5056967;28;20190;-44
2023/01/10 13:09:27;;;;;;;14.20;2.67;;;8.50;99.90;;;;;;5056800;28;20232;-47
2023/01/10 13:12:13;;;;;;;15.93;3.00;;;8.50;99.90;;;;;;5056711;28;20209;-45
2023/01/10 13:15:20;;;;;;;10.17;1.90;;;8.50;99.90;;;;;;5057155;28;20532;-46